Long Beach, California
Current Conditions -  °F | °C
As of 9:53 AM on Thursday 18 Dec 2014 (Local Time) from KLGB Reporting Station
Broken Clouds Broken Clouds  
Wind Chill: 60°   Ceiling: 10000
Heat Index: 60°   Visibility: 10mi
Dew Point: 49°   Wind: 0mph
Humidity: 67%   Direction: NA
Pressure: 30.2"   Gusts: NA
Location:  33.77°N, 118.19°W
Report Text: KLGB 181753Z 00000KT 10SM FEW070 BKN100 16/09 A3020 RMK AO2 RAB02E29 SLP227 P0000 60000 T01560094 10156 20094 51015
Loading
Personal Weather Stations






























Interactive Weather Map New forecast layout! Learn more

10-Day Weather Forecast

Advertisements
Track Severe Weather on mobile